sensor_id;sensor_type;location;lat;lon;timestamp;temperature;humidity
12421;DHT22;6275;43.688;1.408;2024-03-07T21:00:35;6.40;99.90
12421;DHT22;6275;43.688;1.408;2024-03-07T21:03:04;6.50;99.90
12421;DHT22;6275;43.688;1.408;2024-03-07T21:05:33;6.50;99.90
12421;DHT22;6275;43.688;1.408;2024-03-07T21:08:04;6.50;99.90
12421;DHT22;6275;43.688;1.408;2024-03-07T21:10:31;6.40;99.90
12421;DHT22;6275;43.688;1.408;2024-03-07T21:12:58;6.40;99.90
12421;DHT22;6275;43.688;1.408;2024-03-07T21:15:25;6.30;99.90
12421;DHT22;6275;43.688;1.408;2024-03-07T21:17:56;6.20;99.90
12421;DHT22;6275;43.688;1.408;2024-03-07T21:20:23;6.20;99.90
12421;DHT22;6275;43.688;1.408;2024-03-07T21:22:50;6.30;99.90
12421;DHT22;6275;43.688;1.408;2024-03-07T21:25:18;6.20;99.90
12421;DHT22;6275;43.688;1.408;2024-03-07T21:27:50;6.10;99.90
12421;DHT22;6275;43.688;1.408;2024-03-07T21:30:17;6.00;99.90
12421;DHT22;6275;43.688;1.408;2024-03-07T21:32:47;6.00;99.90
12421;DHT22;6275;43.688;1.408;2024-03-07T21:35:15;6.00;99.90
12421;DHT22;6275;43.688;1.408;2024-03-07T21:37:43;5.90;99.90
12421;DHT22;6275;43.688;1.408;2024-03-07T21:40:11;5.80;99.90
12421;DHT22;6275;43.688;1.408;2024-03-07T21:42:46;5.60;99.90
12421;DHT22;6275;43.688;1.408;2024-03-07T21:45:16;5.60;99.90
12421;DHT22;6275;43.688;1.408;2024-03-07T21:47:44;5.50;99.90
12421;DHT22;6275;43.688;1.408;2024-03-07T21:50:12;5.60;99.90
12421;DHT22;6275;43.688;1.408;2024-03-07T21:52:46;5.40;99.90
12421;DHT22;6275;43.688;1.408;2024-03-07T21:55:15;5.40;99.90
12421;DHT22;6275;43.688;1.408;2024-03-07T21:57:43;5.40;99.90
12421;DHT22;6275;43.688;1.408;2024-03-07T22:00:12;5.40;99.90
12421;DHT22;6275;43.688;1.408;2024-03-07T22:02:46;5.30;99.90
12421;DHT22;6275;43.688;1.408;2024-03-07T22:05:17;5.20;99.90
12421;DHT22;6275;43.688;1.408;2024-03-07T22:07:46;4.90;99.90
12421;DHT22;6275;43.688;1.408;2024-03-07T22:10:13;4.80;99.90
12421;DHT22;6275;43.688;1.408;2024-03-07T22:12:42;4.70;99.90
12421;DHT22;6275;43.688;1.408;2024-03-07T22:15:10;4.80;99.90
12421;DHT22;6275;43.688;1.408;2024-03-07T22:17:38;4.90;99.90
12421;DHT22;6275;43.688;1.408;2024-03-07T22:20:05;4.70;99.90
12421;DHT22;6275;43.688;1.408;2024-03-07T22:22:33;4.60;99.90
12421;DHT22;6275;43.688;1.408;2024-03-07T22:25:00;4.60;99.90
12421;DHT22;6275;43.688;1.408;2024-03-07T22:27:27;4.50;99.90
12421;DHT22;6275;43.688;1.408;2024-03-07T22:29:54;4.50;99.90
12421;DHT22;6275;43.688;1.408;2024-03-07T22:32:24;4.50;99.90
12421;DHT22;6275;43.688;1.408;2024-03-07T22:34:54;4.50;99.90
12421;DHT22;6275;43.688;1.408;2024-03-07T22:37:21;4.40;99.90
12421;DHT22;6275;43.688;1.408;2024-03-07T22:39:48;4.50;99.90
12421;DHT22;6275;43.688;1.408;2024-03-07T22:42:16;4.40;99.90
12421;DHT22;6275;43.688;1.408;2024-03-07T22:44:46;4.50;99.90
12421;DHT22;6275;43.688;1.408;2024-03-07T22:47:13;4.30;99.90
12421;DHT22;6275;43.688;1.408;2024-03-07T22:49:39;4.20;99.90
12421;DHT22;6275;43.688;1.408;2024-03-07T22:52:06;4.20;99.90
12421;DHT22;6275;43.688;1.408;2024-03-07T22:54:33;4.20;99.90
12421;DHT22;6275;43.688;1.408;2024-03-07T22:57:04;4.30;99.90
12421;DHT22;6275;43.688;1.408;2024-03-07T22:59:32;4.10;99.90
12421;DHT22;6275;43.688;1.408;2024-03-07T23:01:59;4.20;99.90
12421;DHT22;6275;43.688;1.408;2024-03-07T23:04:26;4.10;99.90
12421;DHT22;6275;43.688;1.408;2024-03-07T23:06:56;4.10;99.90
12421;DHT22;6275;43.688;1.408;2024-03-07T23:09:23;3.80;99.90
12421;DHT22;6275;43.688;1.408;2024-03-07T23:11:52;3.90;99.90
12421;DHT22;6275;43.688;1.408;2024-03-07T23:14:20;3.80;99.90
12421;DHT22;6275;43.688;1.408;2024-03-07T23:16:46;3.70;99.90
12421;DHT22;6275;43.688;1.408;2024-03-07T23:19:14;3.80;99.90
12421;DHT22;6275;43.688;1.408;2024-03-07T23:21:41;3.80;99.90
12421;DHT22;6275;43.688;1.408;2024-03-07T23:24:11;3.80;99.90
12421;DHT22;6275;43.688;1.408;2024-03-07T23:26:41;3.80;99.90
12421;DHT22;6275;43.688;1.408;2024-03-07T23:29:10;3.80;99.90
12421;DHT22;6275;43.688;1.408;2024-03-07T23:31:37;3.80;99.90
12421;DHT22;6275;43.688;1.408;2024-03-07T23:34:04;3.70;99.90
12421;DHT22;6275;43.688;1.408;2024-03-07T23:36:31;3.60;99.90
12421;DHT22;6275;43.688;1.408;2024-03-07T23:38:58;3.60;99.90
12421;DHT22;6275;43.688;1.408;2024-03-07T23:41:25;3.60;99.90
12421;DHT22;6275;43.688;1.408;2024-03-07T23:43:52;3.50;99.90
12421;DHT22;6275;43.688;1.408;2024-03-07T23:46:21;3.50;99.90
12421;DHT22;6275;43.688;1.408;2024-03-07T23:48:48;3.50;99.90
12421;DHT22;6275;43.688;1.408;2024-03-07T23:51:19;3.50;99.90
12421;DHT22;6275;43.688;1.408;2024-03-07T23:53:46;3.40;99.90
12421;DHT22;6275;43.688;1.408;2024-03-07T23:56:13;3.40;99.90
12421;DHT22;6275;43.688;1.408;2024-03-07T23:58:41;3.30;99.90
